Time;durP1;ratioP1;P1;durP2;ratioP2;P2;SDS_P1;SDS_P2;PMS_P1;PMS_P2;Temp;Humidity;BMP_temperature;BMP_pressure;BME280_temperature;BME280_humidity;BME280_pressure;Samples;Min_cycle;Max_cycle;Signal;HPM_P1;HPM_P2
2023/06/21 00:01:12;;;;;;;0.80;0.75;;;;;;;-145.06;100.00;60892.56;5890541;23;20006;-93
2023/06/21 00:04:11;;;;;;;0.80;0.60;;;;;;;-145.06;100.00;60892.56;5890796;23;20085;-95
2023/06/21 00:07:00;;;;;;;;;;;;;;;;;;;;;
2023/06/21 00:09:44;;;;;;;0.77;0.70;;;;;;;-145.06;100.00;60892.56;5900890;23;20378;-95
2023/06/21 00:15:46;;;;;;;0.70;0.60;;;;;;;-145.06;100.00;60892.56;5897383;23;20006;-95
2023/06/21 00:18:26;;;;;;;1.05;0.70;;;;;;;-145.06;100.00;60892.56;5890491;23;20034;-92
2023/06/21 00:21:15;;;;;;;;;;;;;;;;;;;;;
2023/06/21 00:24:06;;;;;;;;;;;;;;;;;;;;;
2023/06/21 00:26:57;;;;;;;0.93;0.63;;;;;;;-145.06;100.00;60892.56;5900030;23;20070;-92
2023/06/21 00:29:45;;;;;;;0.65;0.60;;;;;;;-145.06;100.00;60892.56;5890731;23;20433;-95
2023/06/21 00:32:27;;;;;;;0.82;0.63;;;;;;;-145.06;100.00;60892.56;5889911;23;20010;-92
2023/06/21 00:35:07;;;;;;;0.90;0.70;;;;;;;-145.06;100.00;60892.56;5890683;23;20256;-95
2023/06/21 00:40:53;;;;;;;0.70;0.50;;;;;;;-145.06;100.00;60892.56;5870605;23;20007;-95
2023/06/21 00:43:42;;;;;;;0.88;0.70;;;;;;;-145.06;100.00;60892.56;5890965;23;20430;-94
2023/06/21 00:46:24;;;;;;;1.05;0.60;;;;;;;-145.06;100.00;60892.56;5890321;23;20010;-95
2023/06/21 00:49:10;;;;;;;1.27;0.70;;;;;;;-145.06;100.00;60892.56;5890290;23;20426;-96
2023/06/21 00:52:04;;;;;;;0.70;0.60;;;;;;;-145.06;100.00;60892.56;5891767;23;20010;-95
2023/06/21 00:54:55;;;;;;;;;;;;;;;;;;;;;
2023/06/21 00:58:09;;;;;;;0.77;0.63;;;;;;;-145.06;100.00;60892.56;5906763;23;20014;-94
2023/06/21 01:09:12;;;;;;;0.70;0.63;;;;;;;-145.06;100.00;60892.56;5880496;23;20090;-93
2023/06/21 01:12:01;;;;;;;3.00;0.73;;;;;;;-145.06;100.00;60892.56;5836892;23;20007;-92
2023/06/21 01:15:09;;;;;;;1.13;0.75;;;;;;;-145.06;100.00;60892.56;5860673;23;20003;-94
2023/06/21 01:17:56;;;;;;;0.70;0.70;;;;;;;-145.06;100.00;60892.56;5861256;23;20007;-93
2023/06/21 01:20:49;;;;;;;1.25;0.60;;;;;;;-145.06;100.00;60892.56;5860565;23;20003;-92
2023/06/21 01:24:17;;;;;;;1.10;0.90;;;;;;;-145.06;100.00;60892.56;5861074;23;20007;-93
2023/06/21 01:27:23;;;;;;;0.90;0.70;;;;;;;-145.06;100.00;60892.56;5805883;23;20003;-92
2023/06/21 01:30:16;;;;;;;0.85;0.68;;;;;;;21.31;100.00;60892.56;5860758;23;20007;-92
2023/06/21 01:33:18;;;;;;;;;;;;;;;;;;;;;
2023/06/21 01:36:19;;;;;;;;;;;;;;;;;;;;;
2023/06/21 01:39:11;;;;;;;0.75;0.60;;;;;;;-145.06;100.00;60892.56;5870953;23;20086;-92
2023/06/21 01:41:53;;;;;;;1.10;0.80;;;;;;;-145.06;100.00;60892.56;5860733;23;20042;-92
2023/06/21 01:45:23;;;;;;;0.98;0.77;;;;;;;-145.06;100.00;60892.56;5861019;23;20007;-92
2023/06/21 01:48:14;;;;;;;0.63;0.52;;;;;;;-145.06;100.00;60892.56;5859637;23;20085;-93
2023/06/21 01:51:01;;;;;;;1.27;0.93;;;;;;;-145.06;100.00;60892.56;5860500;23;20011;-92
2023/06/21 01:54:28;;;;;;;;;;;;;;;;;;;;;
2023/06/21 01:57:21;;;;;;;0.80;0.65;;;;;;;21.08;100.00;60892.56;5871066;23;20062;-93
2023/06/21 02:03:38;;;;;;;;;;;;;;;;;;;;;
2023/06/21 02:06:38;;;;;;;;;;;;;;;;;;;;;
2023/06/21 02:09:29;;;;;;;2.05;1.13;;;;;;;-145.06;100.00;60892.56;5870519;23;20312;-93
2023/06/21 02:12:19;;;;;;;;;;;;;;;;;;;;;
2023/06/21 02:15:03;;;;;;;1.10;0.90;;;;;;;-145.06;100.00;60892.56;5870555;23;20315;-92
2023/06/21 02:18:02;;;;;;;;;;;;;;;;;;;;;
2023/06/21 02:21:07;;;;;;;;;;;;;;;;;;;;;
2023/06/21 02:24:00;;;;;;;1.30;0.85;;;;;;;187.52;100.00;60892.56;5870926;23;20030;-93
2023/06/21 02:27:12;;;;;;;;;;;;;;;;;;;;;
2023/06/21 02:30:11;;;;;;;;;;;;;;;;;;;;;
2023/06/21 02:32:53;;;;;;;1.05;0.80;;;;;;;-145.06;100.00;60892.56;5870891;23;20010;-92
2023/06/21 02:35:40;;;;;;;1.05;0.80;;;;;;;20.83;100.00;60892.56;5860720;23;20450;-94
2023/06/21 02:38:32;;;;;;;;;;;;;;;;;;;;;
2023/06/21 02:41:34;;;;;;;1.13;0.90;;;;;;;-145.06;100.00;60892.56;5870629;23;20011;-93
2023/06/21 02:44:46;;;;;;;;;;;;;;;;;;;;;
2023/06/21 02:47:48;;;;;;;1.30;0.90;;;;;;;187.52;100.00;60892.56;5861629;23;20003;-93
2023/06/21 02:50:19;;;;;;;1.25;0.93;;;;;;;-145.06;100.00;60892.56;5861040;23;20442;-94
2023/06/21 02:53:01;;;;;;;1.38;1.02;;;;;;;-145.06;100.00;60892.56;5859924;23;20011;-91
2023/06/21 02:55:42;;;;;;;1.85;1.17;;;;;;;-145.06;100.00;60892.56;5859993;23;20007;-93
2023/06/21 02:58:21;;;;;;;1.10;0.90;;;;;;;-145.06;100.00;60892.56;5859286;23;20006;-93
2023/06/21 03:01:03;;;;;;;1.45;0.95;;;;;;;-145.06;100.00;60892.56;5859787;23;20316;-92
2023/06/21 03:03:44;;;;;;;1.05;0.82;;;;;;;-145.06;100.00;60892.56;5860194;23;20081;-92
2023/06/21 03:06:29;;;;;;;1.33;1.10;;;;;;;20.52;100.00;60892.56;5859543;23;20006;-93
2023/06/21 03:09:08;;;;;;;1.73;1.20;;;;;;;20.75;100.00;60892.56;5859943;23;20019;-93
2023/06/21 03:11:47;;;;;;;2.58;1.48;;;;;;;-145.06;100.00;60892.56;5861097;23;20011;-92
2023/06/21 03:14:27;;;;;;;3.08;1.50;;;;;;;-145.06;100.00;60892.56;5862706;23;20003;-93
2023/06/21 03:30:28;;;;;;;;;;;;;;;;;;;;;
2023/06/21 03:33:35;;;;;;;2.65;1.60;;;;;;;-145.06;0.00;60892.56;5967106;23;20021;-91
2023/06/21 03:36:19;;;;;;;3.33;1.77;;;;;;;-145.06;0.00;60892.56;5956018;23;20039;-92
2023/06/21 03:39:19;;;;;;;2.58;1.70;;;;;;;-145.06;0.00;60892.56;5934545;23;20005;-91
2023/06/21 03:42:24;;;;;;;3.95;1.80;;;;;;;-145.06;0.00;60892.56;5932563;23;20488;-91
2023/06/21 03:49:11;;;;;;;;;;;;;;;;;;;;;
2023/06/21 08:58:17;;;;;;;1.42;1.08;;;;;;;-145.06;0.00;60892.56;5926907;23;20041;-93
2023/06/21 09:01:00;;;;;;;1.73;1.38;;;;;;;-145.06;0.00;60892.56;5895996;23;20014;-93
2023/06/21 09:04:06;;;;;;;1.10;0.98;;;;;;;-145.06;0.00;60892.56;5895705;23;20321;-93
2023/06/21 09:06:49;;;;;;;1.50;1.20;;;;;;;-145.06;0.00;60892.56;5895703;23;20072;-93
2023/06/21 09:09:29;;;;;;;1.33;1.13;;;;;;;-145.06;0.00;60892.56;5915558;23;20010;-94
2023/06/21 09:12:26;;;;;;;1.10;1.00;;;;;;;-145.06;0.00;60892.56;5916680;23;20010;-94
2023/06/21 09:15:22;;;;;;;1.40;1.25;;;;;;;-145.06;0.00;60892.56;5895916;23;20005;-94
2023/06/21 09:18:07;;;;;;;1.58;1.38;;;;;;;-145.06;0.00;60892.56;5895675;23;20010;-93
2023/06/21 09:20:49;;;;;;;1.50;1.30;;;;;;;-145.06;0.00;60892.56;5916254;23;20005;-92
2023/06/21 09:23:28;;;;;;;1.40;1.30;;;;;;;-145.06;0.00;60892.56;5895808;23;20542;-94
2023/06/21 09:29:45;;;;;;;1.60;1.30;;;;;;;-145.06;0.00;60892.56;5913329;23;19905;-93
2023/06/21 09:32:27;;;;;;;1.38;1.27;;;;;;;-145.06;0.00;60892.56;5895751;23;20006;-95
2023/06/21 09:35:17;;;;;;;;;;;;;;;;;;;;;
2023/06/21 09:37:56;;;;;;;1.90;1.20;;;;;;;-145.06;0.00;60892.56;5926784;23;20037;-93
2023/06/21 09:40:45;;;;;;;1.77;1.20;;;;;;;-145.06;0.00;60892.56;5895262;23;20037;-94
2023/06/21 09:43:36;;;;;;;2.17;1.20;;;;;;;-145.06;0.00;60892.56;5916273;23;20035;-94
2023/06/21 09:46:16;;;;;;;1.15;1.00;;;;;;;-145.06;0.00;60892.56;5916457;23;20002;-95
2023/06/21 09:49:18;;;;;;;;;;;;;;;-145.06;0.00;60892.56;5895804;23;20034;-94
2023/06/21 09:52:01;;;;;;;1.50;1.27;;;;;;;-145.06;0.00;60892.56;5895228;23;19905;-94
2023/06/21 09:54:41;;;;;;;1.75;1.15;;;;;;;-145.06;0.00;60892.56;5895278;23;20310;-95
2023/06/21 09:57:35;;;;;;;2.15;1.60;;;;;;;-145.06;0.00;60892.56;5915591;23;20437;-95
2023/06/21 10:00:27;;;;;;;2.00;1.40;;;;;;;-145.06;0.00;60892.56;5936559;23;20310;-95
2023/06/21 10:03:06;;;;;;;1.50;1.40;;;;;;;-145.06;0.00;60892.56;5916464;23;20009;-95
2023/06/21 10:05:55;;;;;;;2.08;1.55;;;;;;;-145.06;0.00;60892.56;5916399;23;20010;-94
2023/06/21 10:08:36;;;;;;;2.58;1.77;;;;;;;-145.06;0.00;60892.56;5937131;23;20005;-95
2023/06/21 10:11:19;;;;;;;2.25;1.63;;;;;;;-145.06;0.00;60892.56;5936976;23;20009;-95
2023/06/21 10:13:59;;;;;;;1.35;1.20;;;;;;;-145.06;0.00;60892.56;5937089;23;20010;-94
2023/06/21 10:16:44;;;;;;;1.40;1.30;;;;;;;-145.06;0.00;60892.56;5937075;23;20009;-95
2023/06/21 10:19:29;;;;;;;1.60;1.40;;;;;;;-145.06;0.00;60892.56;5936671;23;20433;-95
2023/06/21 10:22:20;;;;;;;1.40;1.20;;;;;;;-145.06;0.00;60892.56;5936781;23;20006;-94
2023/06/21 10:25:01;;;;;;;1.48;1.38;;;;;;;-145.06;0.00;60892.56;5935785;23;20013;-95
2023/06/21 10:27:45;;;;;;;2.17;1.50;;;;;;;28.87;0.00;60892.56;5936736;23;20002;-95
2023/06/21 10:30:27;;;;;;;1.23;1.08;;;;;;;-145.06;0.00;60892.56;5936755;23;20256;-95
2023/06/21 10:33:14;;;;;;;1.60;1.50;;;;;;;-145.06;0.00;60892.56;5936629;23;20010;-94
2023/06/21 10:35:58;;;;;;;1.42;1.33;;;;;;;-145.06;0.00;60892.56;5915334;23;20010;-95
2023/06/21 10:38:47;;;;;;;1.55;1.45;;;;;;;-145.06;0.00;60892.56;5936254;23;20010;-94
2023/06/21 10:41:31;;;;;;;2.00;1.80;;;;;;;-145.06;0.00;60892.56;5937094;23;20010;-94
2023/06/21 10:44:11;;;;;;;1.60;1.30;;;;;;;-145.06;0.00;60892.56;5937068;23;20265;-96
2023/06/21 10:46:56;;;;;;;1.85;1.55;;;;;;;-145.06;0.00;60892.56;5915349;23;20010;-96
2023/06/21 10:49:38;;;;;;;1.70;1.58;;;;;;;-145.06;0.00;60892.56;5936631;23;20010;-95
2023/06/21 10:52:21;;;;;;;2.05;1.60;;;;;;;-145.06;0.00;60892.56;5936256;23;20072;-94
2023/06/21 10:55:02;;;;;;;1.70;1.40;;;;;;;28.87;0.00;60892.56;5936348;23;20034;-94
2023/06/21 10:57:43;;;;;;;1.58;1.30;;;;;;;-145.06;0.00;60892.56;5894744;23;20006;-93
2023/06/21 11:00:24;;;;;;;1.10;1.00;;;;;;;-145.06;0.00;60892.56;5895324;23;20029;-94
2023/06/21 11:03:03;;;;;;;2.25;1.27;;;;;;;-145.06;0.00;60892.56;5935194;23;20018;-95
2023/06/21 11:28:19;;;;;;;1.40;1.30;;;;;;;-145.06;0.00;60892.56;5964195;23;20036;-93
2023/06/21 11:31:02;;;;;;;1.50;1.40;;;;;;;-145.06;0.00;60892.56;5951284;23;20432;-92
2023/06/21 11:33:55;;;;;;;1.20;1.10;;;;;;;-145.06;0.00;60892.56;5951940;23;20005;-94
2023/06/21 11:36:37;;;;;;;1.92;1.33;;;;;;;-145.06;0.00;60892.56;5951133;23;20076;-94
2023/06/21 11:40:39;;;;;;;1.20;1.10;;;;;;;-145.06;0.00;60892.56;5953382;23;20012;-94
